Ashtabula, OH

10:54 PM EDT on July 07, 2015 (GMT -0400)
Ashtabula Harbor | | Change Station
CLOSE
Current Station
Personal Weather Station
Location: Ashtabula, OH
Elevation: 633 ft
Nearby Weather Stations

Elev 633 ft 41.88 °N, 80.81 °W | Updated 25 seconds ago

Overcast
Overcast
64.1 °F
Feels Like 64.1 °F
N
3.0
Wind Variable Wind from West
Gusts 3.0 mph

Today
High -- | Low -- °F
--% Chance of Precip.
Yesterday
High -- | Low -- °F
Precip. -- in
5:55 AM 9:00 PM
Waning Gibbous, 58% visible
Pressure 30.00 in
Visibility 3.0 miles
Clouds Overcast 400 ft
Dew Point 61 °F
Humidity 90%
Rainfall 0.07 in
Snow Depth Not available.
UV 0 out of 12
Pollen 2.50 out of 12
Air Quality Not available.
Flu Activity Not available.
SPECI KHZY 080237Z AUTO 33006KT 3SM BR OVC004 17/17 A3000 RMK AO2 T01720167

More Conditions Fewer Conditions

Pressure 30.00 in
Visibility 3.0 miles
Clouds Overcast 400 ft
Dew Point 61 °F
Humidity 90%
Rainfall 0.07 in
Snow Depth Not available.
UV 0 out of 12
Pollen 2.50 out of 12
Air Quality Not available.
Flu Activity Not available.
SPECI KHZY 080237Z AUTO 33006KT 3SM BR OVC004 17/17 A3000 RMK AO2 T01720167

More Conditions Fewer Conditions

10-Day Weather Forecast

×

Almanac

Astronomy

Jul. 07, 2015 Rise Set
Actual Time
Civil Twilight
Nautical Twilight
Astronomical Twilight
Moon
Length of Visible Light
Length of Day
Tomorrow will be .
, % of the Moon is Illuminated

Today's Extremes

State Highs State Lows

Community

WunderPhotos

Upload Photos

1,836,021 photos uploaded!

WunderBlogs® & News

Nearby

Air Quality

  Air Quality AQ Index Pollutant
Not available.

Snow Depth

Station Depth Elevation

Earthquake Activity

City Distance Mag. Time & Date
Minimum magnitude displayed is 2.5.

Coastal Water Temperatures

Place Temperature

Stations

Nearby Weather Stations

Station Location Temp. Windchill Dew Point Humidity Wind Precip. Elev Updated Type